createdAt,value
2019-03-31T00:02:14.570Z,22.40
2019-03-31T00:07:19.113Z,22.39
2019-03-31T00:12:23.766Z,22.39
2019-03-31T00:17:28.326Z,22.39
2019-03-31T00:22:32.919Z,22.40
2019-03-31T00:27:37.550Z,22.40
2019-03-31T00:32:42.198Z,22.40
2019-03-31T00:37:46.789Z,22.40
2019-03-31T00:42:51.365Z,22.39
2019-03-31T00:47:55.915Z,22.39
2019-03-31T00:53:00.461Z,22.40
2019-03-31T00:58:05.001Z,22.39
2019-03-31T01:03:09.812Z,22.39
2019-03-31T01:08:15.455Z,22.39
2019-03-31T01:13:20.115Z,22.40
2019-03-31T01:18:24.701Z,22.40
2019-03-31T01:23:29.574Z,22.39
2019-03-31T01:28:34.375Z,22.39
2019-03-31T01:33:39.370Z,22.41
2019-03-31T01:38:43.998Z,22.41
2019-03-31T01:43:48.526Z,22.38
2019-03-31T01:48:53.311Z,22.38
2019-03-31T01:53:57.869Z,22.36
2019-03-31T01:59:02.515Z,22.37
2019-03-31T02:04:07.208Z,22.37
2019-03-31T02:09:11.943Z,22.36
2019-03-31T02:14:16.482Z,22.28
2019-03-31T02:19:21.288Z,22.28
2019-03-31T02:24:25.822Z,22.35
2019-03-31T02:29:30.408Z,22.26
2019-03-31T02:34:34.982Z,22.26
2019-03-31T02:39:39.624Z,22.31
2019-03-31T02:44:44.225Z,22.31
2019-03-31T02:49:48.748Z,22.30
2019-03-31T02:54:53.533Z,22.28
2019-03-31T03:00:00.446Z,22.28
2019-03-31T03:05:18.991Z,22.27
2019-03-31T03:10:12.102Z,22.22
2019-03-31T03:15:27.503Z,22.21
2019-03-31T03:20:32.043Z,22.19
2019-03-31T03:25:54.485Z,22.20
2019-03-31T03:30:43.630Z,22.17
2019-03-31T03:35:48.600Z,22.16
2019-03-31T03:45:56.433Z,22.13
2019-03-31T03:51:00.970Z,22.11
2019-03-31T03:56:05.876Z,22.09
2019-03-31T04:01:13.956Z,22.01
2019-03-31T04:06:18.790Z,22.06
2019-03-31T04:11:27.319Z,22.04
2019-03-31T04:16:32.002Z,22.03
2019-03-31T04:21:36.613Z,22.01
2019-03-31T04:26:41.236Z,22.01
2019-03-31T04:31:45.838Z,22.00
2019-03-31T04:36:50.468Z,21.98
2019-03-31T04:41:55.079Z,21.99
2019-03-31T04:46:59.719Z,21.96
2019-03-31T04:52:04.389Z,21.94
2019-03-31T04:57:08.922Z,21.92
2019-03-31T05:02:13.471Z,21.92
2019-03-31T05:07:18.041Z,21.89
2019-03-31T05:12:22.612Z,21.89
2019-03-31T05:17:27.284Z,21.87
2019-03-31T05:22:31.837Z,21.82
2019-03-31T05:27:36.441Z,21.81
2019-03-31T05:32:40.973Z,21.80
2019-03-31T05:37:51.199Z,21.79
2019-03-31T05:42:51.920Z,21.77
2019-03-31T05:47:56.478Z,21.68
2019-03-31T05:53:01.007Z,21.68
2019-03-31T05:58:05.654Z,21.75
2019-03-31T06:03:10.236Z,21.75
2019-03-31T06:08:15.007Z,21.74
2019-03-31T06:13:19.574Z,21.63
2019-03-31T06:18:24.176Z,21.63
2019-03-31T06:23:28.721Z,21.70
2019-03-31T06:28:33.256Z,21.70
2019-03-31T06:33:37.884Z,21.69
2019-03-31T06:38:42.627Z,21.68
2019-03-31T06:43:47.175Z,21.68
2019-03-31T06:48:51.760Z,21.67
2019-03-31T06:53:56.314Z,21.70
2019-03-31T06:59:00.900Z,21.70
2019-03-31T07:04:05.617Z,21.68
2019-03-31T07:09:10.183Z,21.57
2019-03-31T07:14:14.818Z,19.26
2019-03-31T07:19:19.488Z,17.45
2019-03-31T07:24:24.055Z,18.72
2019-03-31T07:29:28.633Z,19.77
2019-03-31T07:34:33.273Z,20.10
2019-03-31T07:42:30.807Z,20.54
2019-03-31T07:47:35.475Z,20.60
2019-03-31T07:52:40.308Z,20.60
2019-03-31T07:57:45.050Z,20.54
2019-03-31T08:02:49.755Z,20.76
2019-03-31T08:07:54.381Z,20.89
2019-03-31T08:12:58.935Z,20.92
2019-03-31T08:18:03.590Z,20.95
2019-03-31T08:23:08.126Z,20.96
2019-03-31T08:28:12.844Z,21.00
2019-03-31T08:33:17.367Z,21.02
2019-03-31T08:38:24.411Z,21.04
2019-03-31T08:43:28.278Z,21.04
2019-03-31T08:48:32.818Z,21.06
2019-03-31T08:53:37.354Z,21.06
2019-03-31T08:58:42.013Z,21.08
2019-03-31T09:03:46.604Z,21.10
2019-03-31T09:08:51.266Z,21.10
2019-03-31T09:13:55.835Z,21.13
2019-03-31T09:19:00.557Z,21.13
2019-03-31T09:24:05.302Z,21.14
2019-03-31T09:29:09.917Z,21.16
2019-03-31T09:34:14.535Z,21.19
2019-03-31T09:39:19.181Z,21.19
2019-03-31T09:44:23.727Z,21.21
2019-03-31T09:49:28.457Z,21.23
2019-03-31T09:54:32.998Z,21.25
2019-03-31T09:59:37.555Z,21.25
2019-03-31T10:04:42.181Z,21.26
2019-03-31T10:09:47.668Z,21.28
2019-03-31T10:14:54.270Z,21.28
2019-03-31T10:19:58.545Z,21.35
2019-03-31T10:25:03.308Z,21.34
2019-03-31T10:30:09.011Z,21.30
2019-03-31T10:35:13.745Z,21.30
2019-03-31T10:40:18.400Z,21.32
2019-03-31T10:45:23.035Z,21.32
2019-03-31T10:50:27.954Z,21.39
2019-03-31T10:55:32.606Z,21.39
2019-03-31T11:00:38.028Z,21.36
2019-03-31T11:05:42.684Z,21.35
2019-03-31T11:10:47.398Z,21.35
2019-03-31T11:15:51.964Z,21.36
2019-03-31T11:20:58.158Z,21.36
2019-03-31T11:26:02.773Z,21.38
2019-03-31T11:31:07.378Z,21.37
2019-03-31T11:36:12.166Z,21.38
2019-03-31T11:41:16.912Z,21.36
2019-03-31T11:46:21.484Z,21.36
2019-03-31T11:51:26.143Z,21.36
2019-03-31T11:56:30.708Z,21.37
2019-03-31T12:01:35.600Z,21.38
2019-03-31T12:06:40.301Z,21.38
2019-03-31T12:11:45.743Z,21.40
2019-03-31T12:16:50.557Z,21.41
2019-03-31T12:21:55.225Z,21.42
2019-03-31T12:26:59.805Z,21.43
2019-03-31T12:32:04.530Z,21.43
2019-03-31T12:37:09.098Z,21.45
2019-03-31T12:42:13.718Z,21.47
2019-03-31T12:47:18.275Z,21.45
2019-03-31T12:52:22.989Z,21.48
2019-03-31T12:57:27.582Z,21.50
2019-03-31T13:02:32.145Z,21.50
2019-03-31T13:07:36.689Z,21.56
2019-03-31T13:12:41.350Z,21.58
2019-03-31T13:17:46.111Z,21.62
2019-03-31T13:22:50.691Z,21.62
2019-03-31T13:27:55.279Z,21.64
2019-03-31T13:33:00.045Z,21.64
2019-03-31T13:38:10.950Z,21.65
2019-03-31T13:43:11.131Z,21.78
2019-03-31T13:48:15.806Z,21.68
2019-03-31T13:53:20.361Z,21.68
2019-03-31T13:58:25.510Z,21.66
2019-03-31T14:03:30.684Z,21.72
2019-03-31T14:08:35.263Z,21.71
2019-03-31T14:13:39.840Z,21.69
2019-03-31T14:18:44.489Z,21.67
2019-03-31T14:23:49.099Z,21.69
2019-03-31T14:28:53.768Z,21.69
2019-03-31T14:33:58.595Z,21.68
2019-03-31T14:39:04.952Z,21.69
2019-03-31T14:44:09.617Z,21.70
2019-03-31T14:49:14.279Z,21.69
2019-03-31T14:54:18.837Z,21.70
2019-03-31T14:59:23.387Z,21.70
2019-03-31T15:04:28.043Z,21.69
2019-03-31T15:09:32.602Z,21.70
2019-03-31T15:14:37.158Z,21.60
2019-03-31T15:19:41.942Z,21.68
2019-03-31T15:24:46.512Z,21.66
2019-03-31T15:29:51.061Z,21.64
2019-03-31T15:34:55.651Z,21.64
2019-03-31T15:40:00.196Z,21.69
2019-03-31T15:45:05.075Z,21.69
2019-03-31T15:50:10.216Z,21.67
2019-03-31T15:55:15.018Z,21.66
2019-03-31T16:00:20.063Z,21.66
2019-03-31T16:05:24.627Z,21.65
2019-03-31T16:10:28.652Z,21.66
2019-03-31T16:15:32.750Z,21.63
2019-03-31T16:20:36.797Z,21.63
2019-03-31T16:25:44.332Z,21.63
2019-03-31T16:30:48.354Z,21.64
2019-03-31T16:35:52.447Z,21.63
2019-03-31T16:40:56.653Z,21.78
2019-03-31T16:46:00.665Z,21.89
2019-03-31T16:51:04.749Z,21.89
2019-03-31T16:56:08.884Z,21.82
2019-03-31T17:01:12.985Z,21.82
2019-03-31T17:06:17.100Z,21.86
2019-03-31T17:11:21.127Z,21.84
2019-03-31T17:16:25.152Z,22.25
2019-03-31T17:21:29.251Z,22.25
2019-03-31T17:26:33.380Z,22.80
2019-03-31T17:31:37.520Z,22.78
2019-03-31T17:36:41.557Z,22.70
2019-03-31T17:41:45.624Z,22.70
2019-03-31T17:46:49.722Z,22.58
2019-03-31T17:51:53.774Z,22.51
2019-03-31T17:56:57.864Z,22.51
2019-03-31T18:02:01.899Z,22.46
2019-03-31T18:07:06.108Z,22.43
2019-03-31T18:12:10.134Z,22.38
2019-03-31T18:17:14.201Z,22.35
2019-03-31T18:22:18.253Z,22.31
2019-03-31T18:27:22.315Z,22.26
2019-03-31T18:32:26.419Z,22.25
2019-03-31T18:37:30.473Z,22.25
2019-03-31T18:42:34.675Z,22.21
2019-03-31T18:47:38.916Z,22.29
2019-03-31T18:52:43.033Z,22.29
2019-03-31T18:58:04.865Z,22.28
2019-03-31T19:03:33.635Z,22.17
2019-03-31T19:08:44.532Z,22.33
2019-03-31T19:14:06.264Z,22.44
2019-03-31T19:19:20.775Z,22.45
2019-03-31T19:25:01.990Z,22.43
2019-03-31T19:30:38.032Z,22.43
2019-03-31T19:36:03.786Z,22.33
2019-03-31T19:41:30.550Z,22.31
2019-03-31T19:46:42.461Z,22.31
2019-03-31T19:52:06.426Z,22.32
2019-03-31T19:57:18.291Z,22.20
2019-03-31T20:02:44.341Z,22.21
2019-03-31T20:08:03.218Z,22.21
2019-03-31T20:13:28.203Z,22.13
2019-03-31T20:18:53.331Z,22.11
2019-03-31T20:24:07.089Z,22.11
2019-03-31T20:29:36.372Z,22.12
2019-03-31T20:35:02.312Z,22.12
2019-03-31T20:40:23.276Z,22.12
2019-03-31T20:45:27.343Z,22.14
2019-03-31T20:50:31.448Z,22.22
2019-03-31T20:55:35.467Z,22.22
2019-03-31T21:00:39.537Z,22.23
2019-03-31T21:05:43.661Z,22.24
2019-03-31T21:10:47.678Z,22.20
2019-03-31T21:15:51.719Z,22.23
2019-03-31T21:20:55.775Z,22.22
2019-03-31T21:25:59.865Z,22.20
2019-03-31T21:31:03.976Z,22.22
2019-03-31T21:36:08.002Z,22.22
2019-03-31T21:41:14.146Z,22.10
2019-03-31T21:46:18.051Z,22.19
2019-03-31T21:51:22.152Z,22.18
2019-03-31T21:56:26.249Z,22.18
2019-03-31T22:01:31.570Z,22.17
2019-03-31T22:06:35.800Z,22.14
2019-03-31T22:11:39.844Z,22.09
2019-03-31T22:16:44.122Z,22.16
2019-03-31T22:21:48.348Z,22.16
2019-03-31T22:26:52.466Z,22.07
2019-03-31T22:31:56.611Z,22.15
2019-03-31T22:37:01.662Z,22.15
2019-03-31T22:42:05.850Z,22.16
2019-03-31T22:47:09.982Z,22.17
2019-03-31T23:02:20.283Z,22.17
2019-03-31T23:07:24.470Z,22.08
2019-03-31T23:12:28.622Z,22.17
2019-03-31T23:17:32.824Z,22.18
2019-03-31T23:22:36.924Z,22.17
2019-03-31T23:27:40.955Z,22.17
2019-03-31T23:32:45.002Z,22.10
2019-03-31T23:37:49.086Z,22.17
2019-03-31T23:42:53.163Z,22.17
2019-03-31T23:47:57.229Z,22.17
2019-03-31T23:53:01.248Z,22.17
